Time;durP1;ratioP1;P1;durP2;ratioP2;P2;SDS_P1;SDS_P2;PMS_P1;PMS_P2;Temp;Humidity;BMP_temperature;BMP_pressure;BME280_temperature;BME280_humidity;BME280_pressure;Samples;Min_cycle;Max_cycle;Signal;HPM_P1;HPM_P2
2021/03/26 00:00:14;;;;;;;16.10;12.07;;;9.20;69.50;;;;;;5131607;27;20197;-84
2021/03/26 00:02:41;;;;;;;14.68;11.85;;;9.20;69.20;;;;;;5131657;27;20566;-84
2021/03/26 00:05:12;;;;;;;14.25;11.80;;;9.20;70.60;;;;;;5131291;27;20591;-84
2021/03/26 00:07:39;;;;;;;13.70;11.40;;;9.20;70.00;;;;;;5132284;27;20201;-84
2021/03/26 00:10:08;;;;;;;14.40;11.90;;;9.20;70.50;;;;;;5131266;27;20667;-83
2021/03/26 00:12:34;;;;;;;13.75;11.38;;;9.10;70.10;;;;;;5131415;27;20197;-83
2021/03/26 00:15:01;;;;;;;16.05;11.80;;;9.10;70.30;;;;;;5131564;27;20197;-84
2021/03/26 00:17:27;;;;;;;16.88;13.32;;;9.10;70.20;;;;;;5131972;27;20193;-84
2021/03/26 00:19:54;;;;;;;13.13;11.55;;;9.20;70.10;;;;;;5131719;27;20193;-84
2021/03/26 00:22:21;;;;;;;13.60;11.48;;;9.20;70.20;;;;;;5131477;27;20303;-84
2021/03/26 00:24:48;;;;;;;12.48;10.18;;;9.30;70.10;;;;;;5131028;27;20782;-84
2021/03/26 00:27:14;;;;;;;14.23;11.65;;;9.40;70.30;;;;;;5131860;27;20217;-84
2021/03/26 00:29:41;;;;;;;14.95;11.75;;;9.40;69.80;;;;;;5131041;27;20247;-84
2021/03/26 00:32:08;;;;;;;13.80;10.73;;;9.40;70.30;;;;;;5132176;27;20541;-84
2021/03/26 00:34:34;;;;;;;13.60;11.10;;;9.40;70.80;;;;;;5130001;27;20198;-84
2021/03/26 00:37:01;;;;;;;12.43;10.88;;;9.30;70.40;;;;;;5131870;27;20600;-83
2021/03/26 00:39:28;;;;;;;15.38;12.32;;;9.30;70.80;;;;;;5129770;27;20551;-84
2021/03/26 00:41:55;;;;;;;14.75;11.18;;;9.30;70.60;;;;;;5131916;27;20193;-84
2021/03/26 00:44:21;;;;;;;13.02;10.98;;;9.30;70.50;;;;;;5131008;27;20216;-84
2021/03/26 00:46:48;;;;;;;14.30;11.38;;;9.20;70.50;;;;;;5131426;27;20200;-83
2021/03/26 00:49:14;;;;;;;14.07;11.13;;;9.30;71.10;;;;;;5130040;27;20575;-84
2021/03/26 00:51:41;;;;;;;11.63;10.40;;;9.10;70.50;;;;;;5131600;27;20197;-84
2021/03/26 00:54:08;;;;;;;12.48;11.25;;;9.00;70.50;;;;;;5129365;27;20550;-83
2021/03/26 00:56:36;;;;;;;12.75;10.50;;;9.10;70.70;;;;;;5131752;27;20237;-83
2021/03/26 00:59:03;;;;;;;12.95;10.35;;;9.00;70.70;;;;;;5130767;27;20220;-84
2021/03/26 01:01:29;;;;;;;13.23;10.35;;;8.90;71.00;;;;;;5130929;27;20200;-83
2021/03/26 01:03:56;;;;;;;13.73;10.18;;;8.80;71.00;;;;;;5130130;27;20296;-83
2021/03/26 01:06:22;;;;;;;12.45;10.63;;;8.70;71.00;;;;;;5131146;27;20205;-83
2021/03/26 01:08:49;;;;;;;12.85;11.40;;;8.70;71.80;;;;;;5130600;27;20217;-83
2021/03/26 01:11:18;;;;;;;13.68;11.43;;;8.70;72.20;;;;;;5130116;27;20479;-84
2021/03/26 01:13:46;;;;;;;15.27;10.90;;;8.60;72.00;;;;;;5130165;27;20261;-84
2021/03/26 01:16:13;;;;;;;16.60;12.07;;;8.60;71.90;;;;;;5129590;27;20189;-83
2021/03/26 01:18:42;;;;;;;16.45;10.57;;;8.60;71.70;;;;;;5131007;27;20204;-83
2021/03/26 01:21:11;;;;;;;13.13;10.68;;;8.60;72.00;;;;;;5130363;27;20213;-83
2021/03/26 01:23:38;;;;;;;14.75;11.70;;;8.60;71.80;;;;;;5129830;27;20193;-84
2021/03/26 01:26:05;;;;;;;15.60;12.40;;;8.60;71.80;;;;;;5130405;27;20181;-84
2021/03/26 01:28:32;;;;;;;15.55;11.27;;;8.60;72.00;;;;;;5129777;27;20209;-83
2021/03/26 01:31:00;;;;;;;18.17;11.15;;;8.70;71.90;;;;;;5130458;27;20185;-83
2021/03/26 01:33:27;;;;;;;16.30;12.35;;;8.70;72.00;;;;;;5130258;27;20221;-84
2021/03/26 01:35:55;;;;;;;16.25;11.40;;;8.80;71.70;;;;;;5130377;27;20181;-84
2021/03/26 01:38:22;;;;;;;12.20;10.90;;;8.80;72.10;;;;;;5128898;27;20524;-83
2021/03/26 01:40:52;;;;;;;11.10;10.05;;;8.90;71.70;;;;;;5130842;27;20189;-83
2021/03/26 01:43:21;;;;;;;13.70;11.15;;;8.90;71.80;;;;;;5128321;27;20192;-84
2021/03/26 01:45:48;;;;;;;11.80;10.52;;;8.90;72.30;;;;;;5130865;27;20701;-84
2021/03/26 01:48:22;;;;;;;15.20;11.00;;;8.90;71.70;;;;;;5129963;27;20213;-84
2021/03/26 01:50:49;;;;;;;10.80;9.60;;;8.90;72.00;;;;;;5130519;27;20216;-84
2021/03/26 01:53:15;;;;;;;11.32;10.23;;;8.80;72.60;;;;;;5129862;27;20189;-84
2021/03/26 01:55:45;;;;;;;13.52;12.13;;;8.70;71.50;;;;;;5129285;27;20651;-84
2021/03/26 01:58:15;;;;;;;13.43;11.13;;;8.60;71.90;;;;;;5130405;27;20662;-84
2021/03/26 02:00:44;;;;;;;15.23;10.80;;;8.60;72.40;;;;;;5129865;28;20207;-84
2021/03/26 02:03:18;;;;;;;15.68;11.52;;;8.50;72.60;;;;;;5129414;28;20192;-84
2021/03/26 02:05:47;;;;;;;12.95;11.13;;;8.40;72.60;;;;;;5128819;28;20280;-83
2021/03/26 02:08:14;;;;;;;13.98;11.60;;;8.20;72.90;;;;;;5126442;28;20218;-83
2021/03/26 02:10:43;;;;;;;16.08;11.80;;;8.30;73.50;;;;;;5126034;27;20198;-84
2021/03/26 02:13:20;;;;;;;14.25;11.35;;;8.10;73.50;;;;;;5125770;28;20211;-84
2021/03/26 02:15:50;;;;;;;12.82;10.68;;;8.10;73.50;;;;;;5126379;27;20197;-83
2021/03/26 02:18:23;;;;;;;14.80;11.27;;;8.10;73.50;;;;;;5129976;28;20559;-84
2021/03/26 02:20:54;;;;;;;16.10;11.77;;;8.00;74.80;;;;;;5128886;28;20212;-84
2021/03/26 02:23:24;;;;;;;21.48;10.07;;;8.10;75.20;;;;;;5129300;28;20205;-84
2021/03/26 02:25:53;;;;;;;15.02;11.57;;;8.20;74.50;;;;;;5129765;28;20200;-84
2021/03/26 02:28:20;;;;;;;11.40;10.10;;;8.20;74.30;;;;;;5129157;28;20562;-83
2021/03/26 02:30:51;;;;;;;13.80;10.55;;;8.20;74.90;;;;;;5128866;28;20605;-83
2021/03/26 02:33:21;;;;;;;15.30;11.85;;;8.20;74.20;;;;;;5127875;28;20536;-84
2021/03/26 02:35:51;;;;;;;15.63;10.48;;;8.30;74.10;;;;;;5129141;28;20198;-83
2021/03/26 02:38:24;;;;;;;12.80;10.77;;;8.20;74.10;;;;;;5127127;27;20272;-84
2021/03/26 02:40:57;;;;;;;15.32;10.88;;;8.10;74.70;;;;;;5133455;27;20255;-84
2021/03/26 02:43:37;;;;;;;14.20;10.40;;;8.20;74.20;;;;;;5132356;27;20193;-84
2021/03/26 02:46:13;;;;;;;13.18;9.65;;;8.30;74.10;;;;;;5115787;27;20194;-84
2021/03/26 02:48:47;;;;;;;12.85;10.00;;;8.10;73.80;;;;;;5133156;27;20260;-84
2021/03/26 02:51:20;;;;;;;12.38;10.75;;;8.00;73.90;;;;;;5134105;27;20279;-84
2021/03/26 02:53:59;;;;;;;11.77;10.52;;;8.00;74.30;;;;;;5132786;27;20250;-84
2021/03/26 02:56:32;;;;;;;11.45;10.25;;;7.90;74.60;;;;;;5132635;27;20193;-84
2021/03/26 02:59:04;;;;;;;15.27;11.35;;;7.80;74.60;;;;;;5132506;27;20531;-83
2021/03/26 03:01:36;;;;;;;23.65;11.27;;;7.80;74.80;;;;;;5133663;27;20208;-84
2021/03/26 03:04:10;;;;;;;13.43;10.13;;;7.90;74.80;;;;;;5132740;27;20297;-83
2021/03/26 03:06:44;;;;;;;11.68;9.40;;;7.80;74.80;;;;;;5133231;27;20229;-84
2021/03/26 03:09:14;;;;;;;14.13;10.65;;;7.80;75.20;;;;;;5132547;27;20225;-84
2021/03/26 03:11:44;;;;;;;13.35;10.85;;;7.80;76.30;;;;;;5133316;27;20536;-83
2021/03/26 03:14:15;;;;;;;15.88;11.02;;;7.80;76.20;;;;;;5132269;27;20632;-84
2021/03/26 03:16:47;;;;;;;13.55;10.90;;;7.80;76.50;;;;;;5132689;27;20217;-84
2021/03/26 03:19:27;;;;;;;12.73;9.93;;;7.70;76.20;;;;;;5132574;27;20189;-83
2021/03/26 03:22:00;;;;;;;14.18;11.30;;;7.70;76.30;;;;;;5132994;27;20231;-84
2021/03/26 03:24:35;;;;;;;11.35;10.15;;;7.80;76.20;;;;;;5132405;27;20197;-83
2021/03/26 03:27:12;;;;;;;15.98;11.32;;;7.80;76.10;;;;;;5132361;27;20203;-83
2021/03/26 03:29:44;;;;;;;13.95;11.23;;;7.70;76.40;;;;;;5131743;27;20685;-84
2021/03/26 03:32:18;;;;;;;12.95;10.15;;;7.60;76.60;;;;;;5132292;27;20250;-83
2021/03/26 03:34:51;;;;;;;14.98;11.35;;;7.40;76.80;;;;;;5131562;27;20196;-84
2021/03/26 03:37:25;;;;;;;12.80;11.40;;;7.40;76.80;;;;;;5132003;27;20201;-84
2021/03/26 03:40:00;;;;;;;12.48;11.07;;;7.50;76.60;;;;;;5129797;27;20211;-84
2021/03/26 03:42:34;;;;;;;12.50;10.02;;;7.50;76.30;;;;;;5131454;27;20197;-83
2021/03/26 03:45:06;;;;;;;14.45;10.73;;;7.40;76.30;;;;;;5122443;27;20204;-84
2021/03/26 03:47:38;;;;;;;12.80;10.00;;;7.30;76.60;;;;;;5131959;27;20285;-83
2021/03/26 03:50:10;;;;;;;14.15;10.93;;;7.20;76.10;;;;;;5131986;27;20718;-83
2021/03/26 03:52:41;;;;;;;12.70;11.05;;;7.10;76.40;;;;;;5132339;27;20193;-83
2021/03/26 03:55:15;;;;;;;14.38;11.48;;;7.10;76.90;;;;;;5132503;27;20685;-84
2021/03/26 03:57:45;;;;;;;13.20;10.93;;;7.10;77.80;;;;;;5132606;27;20549;-84
2021/03/26 04:00:17;;;;;;;14.80;10.65;;;7.20;77.80;;;;;;5132326;27;20205;-84
2021/03/26 04:02:49;;;;;;;13.48;11.25;;;7.20;77.50;;;;;;5131728;27;20257;-83
2021/03/26 04:05:21;;;;;;;13.00;9.50;;;7.20;77.40;;;;;;5126709;27;20201;-84
2021/03/26 04:07:54;;;;;;;15.95;9.88;;;7.10;77.00;;;;;;5132467;27;20286;-83
2021/03/26 04:10:24;;;;;;;11.57;10.38;;;7.10;76.90;;;;;;5132611;27;20462;-84
2021/03/26 04:12:54;;;;;;;13.85;10.70;;;7.00;77.90;;;;;;5131912;27;20204;-83
2021/03/26 04:15:27;;;;;;;13.75;10.40;;;7.10;77.60;;;;;;5131743;27;20288;-84
2021/03/26 04:17:59;;;;;;;13.73;10.63;;;7.10;77.70;;;;;;5133027;27;20200;-84
2021/03/26 04:20:32;;;;;;;18.02;11.63;;;7.20;77.70;;;;;;5131617;27;20201;-84
2021/03/26 04:23:05;;;;;;;15.32;12.00;;;7.40;78.60;;;;;;5131578;27;20197;-84
2021/03/26 04:25:35;;;;;;;16.48;12.07;;;7.30;79.00;;;;;;5132186;27;20693;-84
2021/03/26 04:28:07;;;;;;;14.25;10.68;;;7.40;78.00;;;;;;5132525;27;20222;-84
2021/03/26 04:30:39;;;;;;;18.98;12.05;;;7.40;78.10;;;;;;5132007;27;20193;-84
2021/03/26 04:33:06;;;;;;;14.70;11.25;;;7.30;77.70;;;;;;5131632;27;20189;-83
2021/03/26 04:35:32;;;;;;;11.90;10.65;;;7.30;77.90;;;;;;5131887;27;20561;-83
2021/03/26 04:38:07;;;;;;;14.20;11.48;;;7.30;78.20;;;;;;5130453;27;20201;-83
2021/03/26 04:40:38;;;;;;;12.90;11.48;;;7.30;78.50;;;;;;5132338;27;20196;-84
2021/03/26 04:43:15;;;;;;;12.65;10.80;;;7.40;78.50;;;;;;5131314;27;20193;-84
2021/03/26 04:45:47;;;;;;;14.30;12.70;;;7.40;78.10;;;;;;5131616;27;20185;-83
2021/03/26 04:48:22;;;;;;;15.32;11.60;;;7.40;77.80;;;;;;5131885;27;20729;-83
2021/03/26 04:50:59;;;;;;;17.15;12.35;;;7.60;78.00;;;;;;5130738;27;20711;-83
2021/03/26 04:53:30;;;;;;;14.93;11.90;;;7.50;77.80;;;;;;5131059;27;20193;-83
2021/03/26 04:56:04;;;;;;;17.35;12.80;;;7.50;78.10;;;;;;5131902;27;20259;-83
2021/03/26 04:58:35;;;;;;;13.60;11.65;;;7.50;78.30;;;;;;5131169;27;20208;-83
2021/03/26 05:01:06;;;;;;;15.48;13.88;;;7.50;78.10;;;;;;5131692;27;20204;-84
2021/03/26 05:03:35;;;;;;;23.63;18.25;;;7.50;78.20;;;;;;5129467;27;20569;-83
2021/03/26 05:06:06;;;;;;;20.27;16.75;;;7.80;78.60;;;;;;5111449;28;20270;-83
2021/03/26 05:08:33;;;;;;;19.30;15.05;;;7.80;78.20;;;;;;5127052;27;20262;-83
2021/03/26 05:11:03;;;;;;;21.33;15.23;;;7.80;78.00;;;;;;5131098;27;20528;-83
2021/03/26 05:13:33;;;;;;;20.92;16.10;;;7.90;77.70;;;;;;5130980;27;20201;-83
2021/03/26 05:16:04;;;;;;;17.23;15.40;;;7.90;77.80;;;;;;5130363;27;20197;-84
2021/03/26 05:18:38;;;;;;;20.17;14.52;;;7.90;78.10;;;;;;5131538;27;20194;-84
2021/03/26 05:21:11;;;;;;;21.73;16.15;;;7.80;77.80;;;;;;5131019;27;20255;-84
2021/03/26 05:23:42;;;;;;;20.65;13.27;;;7.90;78.20;;;;;;5130700;27;20246;-84
2021/03/26 05:26:10;;;;;;;18.83;14.00;;;7.80;77.80;;;;;;5130928;27;20562;-84
2021/03/26 05:28:40;;;;;;;19.33;13.77;;;7.80;77.60;;;;;;5130786;27;20266;-85
2021/03/26 05:31:11;;;;;;;16.50;12.70;;;7.80;77.90;;;;;;5131276;27;20193;-84
2021/03/26 05:33:42;;;;;;;17.23;13.75;;;7.70;77.50;;;;;;5130572;27;20200;-84
2021/03/26 05:36:15;;;;;;;17.63;13.00;;;7.90;78.20;;;;;;5130720;27;20193;-84
2021/03/26 05:38:47;;;;;;;15.10;12.10;;;7.90;78.00;;;;;;5129440;27;20673;-83
2021/03/26 05:41:40;;;;;;;15.88;13.32;;;7.90;77.90;;;;;;5131212;27;20189;-83
2021/03/26 05:44:18;;;;;;;15.15;11.90;;;7.90;78.00;;;;;;5130297;27;20197;-84
2021/03/26 05:46:59;;;;;;;17.80;13.15;;;7.80;77.70;;;;;;5130758;27;20927;-84
2021/03/26 05:49:38;;;;;;;17.48;12.80;;;7.80;77.90;;;;;;5131066;27;20311;-84
2021/03/26 05:52:30;;;;;;;14.10;12.65;;;7.90;78.00;;;;;;5129804;27;20654;-84
2021/03/26 05:55:23;;;;;;;15.60;12.05;;;8.00;78.10;;;;;;5126326;27;20516;-84
2021/03/26 05:58:04;;;;;;;21.90;13.07;;;8.00;77.90;;;;;;5109765;28;20202;-84
2021/03/26 06:00:58;;;;;;;15.70;12.07;;;8.00;78.00;;;;;;5123063;28;20193;-84
2021/03/26 06:03:54;;;;;;;17.83;13.77;;;8.10;78.00;;;;;;5129529;28;20580;-84
2021/03/26 06:06:58;;;;;;;19.67;14.82;;;8.20;77.90;;;;;;5094729;27;20276;-84
2021/03/26 06:10:13;;;;;;;22.33;15.15;;;8.20;77.30;;;;;;5116359;28;20212;-84
2021/03/26 06:13:06;;;;;;;17.60;14.35;;;8.30;77.20;;;;;;5088607;28;20250;-84
2021/03/26 06:16:04;;;;;;;18.33;15.77;;;8.30;77.70;;;;;;5134903;27;20208;-83
2021/03/26 06:18:49;;;;;;;15.15;12.98;;;8.40;77.40;;;;;;5134646;27;20205;-84
2021/03/26 06:21:28;;;;;;;18.17;14.60;;;8.40;76.90;;;;;;5135184;27;20265;-84
2021/03/26 06:24:26;;;;;;;34.42;16.90;;;8.60;76.90;;;;;;5133805;27;20540;-84
2021/03/26 06:27:07;;;;;;;17.15;14.82;;;8.60;76.30;;;;;;5126825;27;20190;-84
2021/03/26 06:29:58;;;;;;;21.30;15.02;;;8.80;77.10;;;;;;5131198;27;20244;-84
2021/03/26 06:33:10;;;;;;;21.63;16.48;;;8.90;76.00;;;;;;5127675;27;20198;-85
2021/03/26 06:35:52;;;;;;;21.20;14.95;;;9.10;75.60;;;;;;5128681;27;20193;-85
2021/03/26 06:39:08;;;;;;;20.25;14.75;;;9.30;75.00;;;;;;5134387;27;20201;-85
2021/03/26 06:42:09;;;;;;;20.23;15.32;;;9.50;75.20;;;;;;5051434;28;20204;-85
2021/03/26 06:44:57;;;;;;;17.75;14.73;;;9.60;74.70;;;;;;5135065;27;20208;-86
2021/03/26 06:47:38;;;;;;;19.23;15.68;;;9.80;74.40;;;;;;5134535;27;20204;-86
2021/03/26 06:50:17;;;;;;;17.33;13.90;;;9.90;74.80;;;;;;5134724;27;20615;-86
2021/03/26 06:52:53;;;;;;;21.77;14.98;;;9.90;73.70;;;;;;5133682;27;20197;-85
2021/03/26 06:55:37;;;;;;;19.15;14.68;;;9.80;74.10;;;;;;5134014;27;20197;-86
2021/03/26 06:58:39;;;;;;;20.30;14.43;;;9.90;73.80;;;;;;5134397;27;20212;-86
2021/03/26 07:01:39;;;;;;;20.00;13.93;;;10.00;72.00;;;;;;5134765;27;20197;-85
2021/03/26 07:04:53;;;;;;;20.03;14.60;;;10.00;71.40;;;;;;5128766;27;20221;-86
2021/03/26 07:07:52;;;;;;;22.90;15.20;;;9.90;72.50;;;;;;5136905;27;20623;-85
2021/03/26 07:10:37;;;;;;;19.15;14.90;;;10.00;71.90;;;;;;5129265;27;20213;-85
2021/03/26 07:13:45;;;;;;;19.53;15.33;;;10.00;71.90;;;;;;5130712;27;20221;-85
2021/03/26 07:16:47;;;;;;;21.52;15.98;;;10.10;72.30;;;;;;5134140;27;20610;-86
2021/03/26 07:19:29;;;;;;;16.13;14.43;;;10.30;72.10;;;;;;5126263;27;20205;-85
2021/03/26 07:22:22;;;;;;;21.55;16.48;;;10.30;71.20;;;;;;5136867;27;20638;-85
2021/03/26 07:25:09;;;;;;;20.17;14.00;;;10.50;71.90;;;;;;5135379;27;20634;-86
2021/03/26 07:27:51;;;;;;;21.67;14.43;;;10.70;71.90;;;;;;5124246;27;20683;-85
2021/03/26 07:30:52;;;;;;;21.90;16.03;;;10.70;71.20;;;;;;5135435;27;20724;-85
2021/03/26 07:33:25;;;;;;;17.67;14.97;;;10.90;70.70;;;;;;5051049;28;20704;-85
2021/03/26 07:36:07;;;;;;;15.50;13.90;;;11.10;70.90;;;;;;5119410;27;20674;-85
2021/03/26 07:38:54;;;;;;;19.40;14.00;;;11.10;70.50;;;;;;5132628;27;21158;-85
2021/03/26 07:41:37;;;;;;;16.13;12.90;;;11.20;70.60;;;;;;5133460;27;20619;-85
2021/03/26 07:44:26;;;;;;;14.70;12.50;;;11.20;70.20;;;;;;5116584;27;20626;-86
2021/03/26 07:47:07;;;;;;;14.90;11.70;;;11.40;70.70;;;;;;5133815;27;20626;-85
2021/03/26 07:49:45;;;;;;;13.90;12.47;;;11.50;70.70;;;;;;5132813;27;20764;-85
2021/03/26 07:52:19;;;;;;;14.90;11.13;;;11.40;68.70;;;;;;5132964;27;20610;-85
2021/03/26 07:55:03;;;;;;;15.60;11.77;;;11.50;69.20;;;;;;5133822;27;20610;-85
2021/03/26 07:58:02;;;;;;;16.63;11.53;;;11.10;67.70;;;;;;5132994;27;20614;-85
2021/03/26 08:00:55;;;;;;;14.63;13.03;;;11.30;68.90;;;;;;5088280;27;21014;-85
2021/03/26 08:03:49;;;;;;;15.70;11.53;;;11.50;67.70;;;;;;5112691;28;20604;-85
2021/03/26 08:06:44;;;;;;;15.90;12.80;;;11.60;67.80;;;;;;5110950;28;20623;-85
2021/03/26 08:09:28;;;;;;;15.47;12.63;;;11.80;67.60;;;;;;5130096;27;20685;-85
2021/03/26 08:11:59;;;;;;;13.13;11.23;;;12.00;66.90;;;;;;5134366;27;20668;-85
2021/03/26 08:14:51;;;;;;;13.43;11.63;;;12.20;66.10;;;;;;5133985;27;20661;-85
2021/03/26 08:17:31;;;;;;;18.47;12.63;;;12.20;65.70;;;;;;5134789;27;20995;-86
2021/03/26 08:20:13;;;;;;;16.90;11.97;;;12.30;65.90;;;;;;5125148;27;20619;-85
2021/03/26 08:22:48;;;;;;;13.13;11.33;;;12.30;65.20;;;;;;5133670;27;20615;-85
2021/03/26 08:25:41;;;;;;;10.83;9.70;;;12.10;63.40;;;;;;5134168;27;20610;-86
2021/03/26 08:28:32;;;;;;;11.60;10.40;;;12.30;64.70;;;;;;5124509;27;20680;-84
2021/03/26 08:31:36;;;;;;;15.43;11.80;;;12.60;63.20;;;;;;5133254;27;20626;-85
2021/03/26 08:34:16;;;;;;;11.00;9.93;;;12.80;63.20;;;;;;5134113;27;20667;-86
2021/03/26 08:36:46;;;;;;;12.10;9.73;;;12.70;61.80;;;;;;5133850;27;20606;-85
2021/03/26 08:39:28;;;;;;;12.33;11.03;;;12.90;63.30;;;;;;5131982;27;20615;-86
2021/03/26 08:42:00;;;;;;;16.60;10.70;;;12.70;61.10;;;;;;5133935;27;21011;-85
2021/03/26 08:44:27;;;;;;;13.23;11.00;;;12.90;62.00;;;;;;5134465;27;20614;-86
2021/03/26 08:46:57;;;;;;;12.37;10.80;;;13.10;61.80;;;;;;5132798;27;20942;-86
2021/03/26 08:49:50;;;;;;;14.87;11.37;;;13.20;61.60;;;;;;5132904;27;20670;-86
2021/03/26 08:52:33;;;;;;;14.03;11.40;;;13.50;60.90;;;;;;5132848;27;21179;-85
2021/03/26 08:55:32;;;;;;;18.87;13.23;;;13.70;59.80;;;;;;5132290;27;21191;-86
2021/03/26 08:58:21;;;;;;;16.30;12.97;;;13.70;59.80;;;;;;5132838;27;20672;-86
2021/03/26 09:01:20;;;;;;;14.37;12.60;;;13.80;59.80;;;;;;5132408;27;20973;-86
2021/03/26 09:03:58;;;;;;;15.70;12.33;;;14.00;60.10;;;;;;5118445;27;20945;-86
2021/03/26 09:06:46;;;;;;;12.53;11.17;;;14.00;59.50;;;;;;5133551;27;20605;-86
2021/03/26 09:09:32;;;;;;;14.00;12.37;;;14.10;59.50;;;;;;5132100;27;20638;-86
2021/03/26 09:12:24;;;;;;;17.53;11.27;;;14.20;58.90;;;;;;5133383;27;20730;-86
2021/03/26 09:15:25;;;;;;;16.03;12.40;;;14.40;59.20;;;;;;5088292;27;20639;-86
2021/03/26 09:17:56;;;;;;;16.17;11.97;;;14.40;58.90;;;;;;5132872;27;21183;-86
2021/03/26 09:20:31;;;;;;;14.67;12.10;;;14.30;58.30;;;;;;5133159;27;20634;-86
2021/03/26 09:23:29;;;;;;;11.77;10.13;;;14.40;59.10;;;;;;5129721;27;20639;-86
2021/03/26 09:26:00;;;;;;;14.90;13.00;;;14.50;58.50;;;;;;5132542;27;20623;-86
2021/03/26 09:28:33;;;;;;;15.50;13.90;;;14.70;58.80;;;;;;5132553;27;20626;-86
2021/03/26 09:31:06;;;;;;;12.80;11.43;;;14.90;58.40;;;;;;5133118;27;20642;-86
2021/03/26 09:33:34;;;;;;;17.40;11.80;;;14.90;58.00;;;;;;5133130;27;20621;-86
2021/03/26 09:36:03;;;;;;;12.20;10.90;;;14.90;57.90;;;;;;5133763;27;20631;-86
2021/03/26 09:38:37;;;;;;;13.70;11.90;;;15.00;57.80;;;;;;5134147;27;20707;-86
2021/03/26 09:41:18;;;;;;;21.37;11.60;;;15.20;57.60;;;;;;5135246;27;20604;-86
2021/03/26 09:43:55;;;;;;;15.27;12.93;;;15.10;57.60;;;;;;5135552;27;20621;-86
2021/03/26 09:46:26;;;;;;;19.50;11.90;;;15.00;56.90;;;;;;5137040;27;20636;-86
2021/03/26 09:49:13;;;;;;;16.10;11.90;;;15.10;57.60;;;;;;5133946;27;20690;-87
2021/03/26 09:51:51;;;;;;;13.30;11.90;;;15.40;57.40;;;;;;5134005;27;20625;-86
2021/03/26 09:54:28;;;;;;;18.77;12.23;;;15.60;57.40;;;;;;5134750;27;20661;-86
2021/03/26 09:57:07;;;;;;;20.33;12.17;;;15.70;56.90;;;;;;5136065;27;20607;-87
2021/03/26 09:59:45;;;;;;;14.23;11.63;;;15.60;56.50;;;;;;5119427;28;20637;-86
2021/03/26 10:02:30;;;;;;;15.33;12.27;;;15.60;57.00;;;;;;5134832;27;20629;-87
2021/03/26 10:05:05;;;;;;;13.87;11.30;;;15.80;56.40;;;;;;5135916;28;20607;-87
2021/03/26 10:07:41;;;;;;;19.23;13.20;;;16.00;56.20;;;;;;5135438;28;20645;-86
2021/03/26 10:13:07;;;;;;;14.43;12.60;;;16.40;56.30;;;;;;5133974;28;20595;-87
2021/03/26 10:15:43;;;;;;;13.40;11.43;;;16.30;55.80;;;;;;5135647;28;20606;-87
2021/03/26 10:18:15;;;;;;;11.80;10.60;;;16.50;56.10;;;;;;5135617;28;20655;-87
2021/03/26 10:20:49;;;;;;;11.70;10.50;;;16.40;54.90;;;;;;5134058;28;20643;-87
2021/03/26 10:23:27;;;;;;;11.60;10.50;;;16.30;54.60;;;;;;5134595;28;20616;-87
2021/03/26 10:26:03;;;;;;;9.93;8.93;;;16.60;54.60;;;;;;5135747;28;20613;-87
2021/03/26 10:28:51;;;;;;;11.53;9.07;;;16.80;54.50;;;;;;5134703;28;21208;-87
2021/03/26 10:31:28;;;;;;;9.50;8.50;;;17.10;54.60;;;;;;5123537;27;20611;-87
2021/03/26 10:33:56;;;;;;;8.60;7.67;;;17.00;52.80;;;;;;5135531;28;20610;-87
2021/03/26 10:36:29;;;;;;;9.63;8.73;;;17.10;53.00;;;;;;5135141;28;21080;-87
2021/03/26 10:39:05;;;;;;;9.63;8.73;;;17.10;52.40;;;;;;5133717;28;20615;-87
2021/03/26 10:41:38;;;;;;;12.03;8.80;;;16.70;52.40;;;;;;5135880;28;20618;-88
2021/03/26 10:44:15;;;;;;;9.60;8.53;;;16.60;52.40;;;;;;5134175;28;20729;-87
2021/03/26 10:46:47;;;;;;;11.53;8.00;;;16.80;53.20;;;;;;5135527;27;20654;-87
2021/03/26 10:49:18;;;;;;;8.30;7.10;;;16.60;50.70;;;;;;5134384;28;21021;-87
2021/03/26 10:51:49;;;;;;;9.33;8.10;;;16.50;51.30;;;;;;5135038;28;20647;-87
2021/03/26 10:54:24;;;;;;;8.70;7.90;;;16.60;52.10;;;;;;5134293;28;20607;-87
2021/03/26 10:56:58;;;;;;;10.00;7.60;;;16.90;52.70;;;;;;5134684;28;20614;-87
2021/03/26 10:59:37;;;;;;;15.60;8.73;;;17.20;52.70;;;;;;5135168;27;21002;-88
2021/03/26 11:02:38;;;;;;;8.70;7.90;;;17.30;50.50;;;;;;5129264;27;20626;-87
2021/03/26 11:05:24;;;;;;;6.47;5.70;;;16.90;51.80;;;;;;5121078;27;21073;-87
2021/03/26 11:08:16;;;;;;;6.80;6.10;;;17.00;50.80;;;;;;5132203;27;20961;-87
2021/03/26 11:10:45;;;;;;;6.10;5.60;;;16.90;51.00;;;;;;5134507;27;21250;-86
2021/03/26 11:13:21;;;;;;;6.67;5.67;;;16.80;49.90;;;;;;5135117;27;20599;-87
2021/03/26 11:15:52;;;;;;;10.73;6.00;;;16.90;49.20;;;;;;5134354;27;20604;-86
2021/03/26 11:18:24;;;;;;;6.73;5.50;;;16.90;49.50;;;;;;5127409;27;20626;-87
2021/03/26 11:20:57;;;;;;;8.70;6.33;;;16.80;49.30;;;;;;5129729;27;20662;-88
2021/03/26 11:23:27;;;;;;;6.73;6.03;;;17.10;49.90;;;;;;5125551;27;20639;-87
2021/03/26 11:26:06;;;;;;;6.60;5.60;;;17.30;49.50;;;;;;5131720;27;20618;-87
2021/03/26 11:28:39;;;;;;;8.70;5.50;;;17.20;49.00;;;;;;5133968;27;20598;-87
2021/03/26 11:31:29;;;;;;;8.57;5.63;;;17.30;48.50;;;;;;5132467;27;20607;-87
2021/03/26 11:34:12;;;;;;;5.93;5.33;;;17.10;49.70;;;;;;5127569;27;20631;-88
2021/03/26 11:36:53;;;;;;;8.87;6.30;;;17.30;48.80;;;;;;5134038;27;21154;-87
2021/03/26 11:39:26;;;;;;;6.80;6.10;;;17.40;49.30;;;;;;5131174;27;21212;-87
2021/03/26 11:41:57;;;;;;;7.07;6.40;;;17.60;49.20;;;;;;5133248;27;20603;-87
2021/03/26 11:44:28;;;;;;;11.03;7.00;;;18.00;48.00;;;;;;5133014;27;20611;-87
2021/03/26 11:46:58;;;;;;;7.57;6.87;;;17.30;47.90;;;;;;5133401;27;20607;-87
2021/03/26 11:49:30;;;;;;;7.73;6.93;;;17.60;49.90;;;;;;5133675;27;20639;-88
2021/03/26 11:52:01;;;;;;;8.10;7.40;;;17.80;49.00;;;;;;5132258;27;20721;-88
2021/03/26 11:54:35;;;;;;;8.10;7.17;;;17.70;49.30;;;;;;5131790;27;20615;-87
2021/03/26 11:57:11;;;;;;;10.43;8.07;;;17.80;50.00;;;;;;5132397;27;21243;-86
2021/03/26 12:00:10;;;;;;;10.40;8.17;;;17.60;49.60;;;;;;5131148;27;20960;-86
2021/03/26 12:02:48;;;;;;;9.80;8.43;;;18.00;49.50;;;;;;5116062;27;20607;-85
2021/03/26 12:05:25;;;;;;;11.93;8.33;;;18.20;48.60;;;;;;5133054;27;21012;-85
2021/03/26 12:08:00;;;;;;;9.77;8.03;;;18.20;47.40;;;;;;5132845;27;20612;-85
2021/03/26 12:10:35;;;;;;;8.70;7.87;;;18.10;48.00;;;;;;5132194;27;20743;-85
2021/03/26 12:13:14;;;;;;;9.90;8.27;;;18.10;49.50;;;;;;5132631;27;20628;-84
2021/03/26 12:15:45;;;;;;;9.23;8.37;;;18.10;48.60;;;;;;5132776;27;20618;-85
2021/03/26 12:18:18;;;;;;;8.77;6.53;;;18.20;48.70;;;;;;5133282;27;20643;-85
2021/03/26 12:20:46;;;;;;;8.47;7.07;;;18.00;49.00;;;;;;5133273;27;20687;-85
2021/03/26 12:23:33;;;;;;;7.87;7.17;;;18.10;48.10;;;;;;5130136;27;20969;-85
2021/03/26 12:26:07;;;;;;;9.53;7.07;;;17.70;47.50;;;;;;5112929;28;20674;-85
2021/03/26 12:28:48;;;;;;;9.50;7.37;;;17.50;48.40;;;;;;5127986;27;21031;-85
2021/03/26 12:31:20;;;;;;;12.30;8.40;;;17.60;48.10;;;;;;5132795;27;20610;-84
2021/03/26 12:33:52;;;;;;;13.37;7.83;;;17.50;48.70;;;;;;5131821;27;20681;-85
2021/03/26 12:36:26;;;;;;;8.43;6.37;;;17.60;48.20;;;;;;5132920;27;20620;-85
2021/03/26 12:39:02;;;;;;;6.20;5.40;;;17.70;49.00;;;;;;5132241;27;20620;-85
2021/03/26 12:41:41;;;;;;;6.10;5.53;;;17.30;47.30;;;;;;5132981;27;20594;-85
2021/03/26 12:44:21;;;;;;;5.00;4.50;;;17.30;47.80;;;;;;5132083;27;20615;-85
2021/03/26 12:47:23;;;;;;;4.40;4.00;;;17.70;48.30;;;;;;5133648;27;20620;-85
2021/03/26 12:50:01;;;;;;;7.17;4.53;;;18.00;45.50;;;;;;5132976;27;20643;-85
2021/03/26 12:52:40;;;;;;;5.57;5.07;;;18.30;46.50;;;;;;5135124;27;20601;-85
2021/03/26 12:55:14;;;;;;;4.90;4.40;;;18.00;44.10;;;;;;5114608;28;20928;-86
2021/03/26 12:57:49;;;;;;;5.30;4.23;;;18.00;44.60;;;;;;5126504;27;20726;-85
2021/03/26 13:00:22;;;;;;;5.30;4.80;;;18.30;46.00;;;;;;5134380;27;20721;-86
2021/03/26 13:02:58;;;;;;;9.73;6.53;;;18.10;43.40;;;;;;5136553;27;20641;-84
2021/03/26 13:05:28;;;;;;;8.17;5.93;;;18.30;44.30;;;;;;5138150;27;20766;-85
2021/03/26 13:08:08;;;;;;;5.73;5.23;;;18.70;45.00;;;;;;5137226;27;20656;-85
2021/03/26 13:10:49;;;;;;;8.47;5.23;;;18.70;45.10;;;;;;5116309;28;20647;-84
2021/03/26 13:13:30;;;;;;;4.93;4.50;;;18.80;44.90;;;;;;5124152;27;20607;-85
2021/03/26 13:16:33;;;;;;;5.60;5.03;;;18.90;44.40;;;;;;5136161;27;20624;-85
2021/03/26 13:19:02;;;;;;;6.13;5.23;;;18.80;45.20;;;;;;5137006;27;20642;-85
2021/03/26 13:21:40;;;;;;;5.83;5.33;;;18.90;44.40;;;;;;5136572;27;20613;-85
2021/03/26 13:24:32;;;;;;;6.40;5.80;;;18.90;44.60;;;;;;5134309;27;20614;-84
2021/03/26 13:27:41;;;;;;;6.77;6.17;;;18.80;44.10;;;;;;5136420;27;20715;-85